Time;durP1;ratioP1;P1;durP2;ratioP2;P2;SDS_P1;SDS_P2;PMS_P1;PMS_P2;Temp;Humidity;BMP_temperature;BMP_pressure;BME280_temperature;BME280_humidity;BME280_pressure;Samples;Min_cycle;Max_cycle;Signal;HPM_P1;HPM_P2
2021/05/13 00:00:46;;;;;;;127.62;12.18;;;;;;;14.87;54.17;97655.75;2163252;82;21398;-80
2021/05/13 00:03:48;;;;;;;14.68;4.78;;;;;;;14.83;54.16;97648.84;2162821;82;21085;-78
2021/05/13 00:06:49;;;;;;;18.15;5.80;;;;;;;14.79;54.12;97645.87;2161874;82;21467;-80
2021/05/13 00:09:50;;;;;;;11.60;5.03;;;;;;;14.76;54.07;97643.32;2162300;82;20950;-78
2021/05/13 00:13:00;;;;;;;12.70;4.92;;;;;;;14.72;54.09;97646.88;2162569;82;20979;-78
2021/05/13 00:16:00;;;;;;;10.25;4.50;;;;;;;14.65;54.18;97644.85;2162512;82;21046;-79
2021/05/13 00:19:01;;;;;;;18.82;4.85;;;;;;;14.58;54.20;97638.88;2162907;82;21081;-79
2021/05/13 00:22:02;;;;;;;12.88;4.87;;;;;;;14.50;54.34;97634.26;2163053;82;20986;-80
2021/05/13 00:25:03;;;;;;;14.60;5.20;;;;;;;14.44;54.59;97633.09;2162938;82;20943;-79
2021/05/13 00:28:04;;;;;;;13.03;4.60;;;;;;;14.38;54.83;97629.70;2162553;82;21073;-79
2021/05/13 00:31:05;;;;;;;6.90;4.45;;;;;;;14.32;54.87;97623.69;2162472;82;21346;-80
2021/05/13 00:34:06;;;;;;;9.73;4.75;;;;;;;14.24;54.86;97617.75;2162468;82;21070;-79
2021/05/13 00:37:07;;;;;;;12.50;5.05;;;;;;;14.19;55.18;97618.30;2162454;82;21090;-79
2021/05/13 00:40:08;;;;;;;6.10;4.37;;;;;;;14.15;54.96;97621.89;2162521;82;21085;-79
2021/05/13 00:43:09;;;;;;;8.05;4.65;;;;;;;14.10;55.31;97623.75;2163435;81;21014;-78
2021/05/13 00:46:10;;;;;;;12.37;4.85;;;;;;;14.06;55.18;97627.78;2180068;82;21009;-79
2021/05/13 00:49:15;;;;;;;5.12;4.45;;;;;;;14.02;55.33;97620.42;2180586;82;20981;-79
2021/05/13 00:52:14;;;;;;;8.30;4.33;;;;;;;13.97;55.35;97619.21;2179816;82;20950;-79
2021/05/13 00:55:15;;;;;;;57.23;8.50;;;;;;;13.89;55.60;97627.69;2179933;82;20945;-80
2021/05/13 00:58:16;;;;;;;8.73;5.08;;;;;;;13.80;55.69;97626.53;2180146;82;20950;-79
2021/05/13 01:01:18;;;;;;;10.72;4.67;;;;;;;13.73;55.96;97626.24;2179899;82;20974;-78
2021/05/13 01:04:19;;;;;;;127.92;12.35;;;;;;;13.63;56.15;97618.14;2179725;82;20990;-79
2021/05/13 01:07:20;;;;;;;9.58;5.45;;;;;;;13.56;56.28;97621.78;2179817;81;20998;-78
2021/05/13 01:10:23;;;;;;;8.10;4.65;;;;;;;13.50;56.31;97617.97;2179634;82;20973;-79
2021/05/13 01:13:26;;;;;;;6.17;4.70;;;;;;;13.42;56.43;97622.48;2180000;81;21207;-79
2021/05/13 01:16:34;;;;;;;11.30;4.97;;;;;;;13.33;56.60;97616.53;2179556;82;21434;-79
2021/05/13 01:19:29;;;;;;;12.50;5.10;;;;;;;13.27;56.72;97615.78;2178565;82;20973;-78
2021/05/13 01:22:30;;;;;;;6.45;5.20;;;;;;;13.23;56.72;97620.66;2179780;82;21314;-78
2021/05/13 01:25:31;;;;;;;7.22;5.10;;;;;;;13.14;56.88;97612.93;2179434;82;21410;-78
2021/05/13 01:28:32;;;;;;;11.03;5.15;;;;;;;13.03;57.28;97613.98;2179617;82;21311;-79
2021/05/13 01:31:33;;;;;;;15.38;5.47;;;;;;;12.89;57.46;97619.01;2179554;82;21353;-78
2021/05/13 01:34:34;;;;;;;11.60;4.72;;;;;;;12.79;57.80;97610.89;2179644;82;21383;-79
2021/05/13 01:37:35;;;;;;;158.03;14.18;;;;;;;12.59;58.05;97610.77;2179778;82;21029;-79
2021/05/13 01:40:36;;;;;;;11.12;5.42;;;;;;;12.36;58.55;97600.65;2179403;81;21024;-78
2021/05/13 01:43:37;;;;;;;8.45;5.75;;;;;;;12.27;59.03;97599.92;2177561;81;21068;-78
2021/05/13 01:46:38;;;;;;;13.50;6.20;;;;;;;12.17;59.41;97599.63;2162197;82;20986;-79
2021/05/13 01:49:39;;;;;;;10.00;5.37;;;;;;;12.07;59.61;97591.88;2162430;82;21046;-78
2021/05/13 01:52:40;;;;;;;10.53;5.25;;;;;;;11.95;59.62;97594.67;2162696;82;20974;-79
2021/05/13 01:55:41;;;;;;;11.08;5.35;;;;;;;11.90;60.12;97584.72;2161843;82;20990;-78
2021/05/13 01:58:42;;;;;;;11.00;6.17;;;;;;;11.84;60.37;97586.11;2162006;82;21399;-78
2021/05/13 02:01:43;;;;;;;15.45;5.95;;;;;;;11.81;60.52;97584.84;2161486;82;21006;-78
2021/05/13 02:04:44;;;;;;;12.20;5.77;;;;;;;11.77;60.90;97587.03;2161621;82;20979;-80
2021/05/13 02:07:45;;;;;;;12.82;6.42;;;;;;;11.72;60.99;97579.70;2162609;82;20979;-79
2021/05/13 02:10:46;;;;;;;14.83;7.00;;;;;;;11.67;61.24;97577.58;2162523;82;21045;-78
2021/05/13 02:13:47;;;;;;;12.93;7.05;;;;;;;11.60;61.25;97581.16;2162557;82;21380;-78
2021/05/13 02:16:49;;;;;;;15.87;6.20;;;;;;;11.49;61.46;97578.23;2162526;82;21073;-79
2021/05/13 02:19:49;;;;;;;77.00;11.85;;;;;;;11.46;61.47;97576.09;2162321;82;21054;-80
2021/05/13 02:22:50;;;;;;;19.47;6.77;;;;;;;11.40;61.43;97578.78;2162319;82;20994;-80
2021/05/13 02:25:52;;;;;;;13.48;6.58;;;;;;;11.34;61.80;97577.55;2162288;82;21022;-79
2021/05/13 02:28:53;;;;;;;15.73;6.00;;;;;;;11.24;61.95;97566.74;2161841;82;21042;-78
2021/05/13 02:31:54;;;;;;;188.23;20.80;;;;;;;11.15;62.13;97574.23;2162705;82;20986;-79
2021/05/13 02:34:55;;;;;;;18.67;7.47;;;;;;;11.01;62.17;97576.13;2161932;82;20943;-79
2021/05/13 02:37:57;;;;;;;42.67;8.20;;;;;;;10.88;62.32;97571.91;2162580;82;21070;-78
2021/05/13 02:40:58;;;;;;;16.17;6.90;;;;;;;10.83;62.58;97568.03;2162929;82;21054;-79
2021/05/13 02:43:59;;;;;;;14.70;6.17;;;;;;;10.83;62.64;97564.98;2164907;81;21081;-79
2021/05/13 02:47:00;;;;;;;15.80;6.27;;;;;;;10.87;62.72;97564.95;2179958;82;20970;-79
2021/05/13 02:50:01;;;;;;;12.17;6.60;;;;;;;10.90;62.64;97563.63;2180178;82;20958;-78
2021/05/13 02:53:03;;;;;;;12.27;6.67;;;;;;;10.94;62.74;97560.10;2180097;82;20942;-78
2021/05/13 02:56:04;;;;;;;21.80;7.60;;;;;;;10.88;62.67;97561.47;2179911;82;21009;-79
2021/05/13 02:59:05;;;;;;;10.30;6.20;;;;;;;10.78;62.74;97558.08;2180031;82;20966;-79
2021/05/13 03:02:06;;;;;;;16.53;6.60;;;;;;;10.67;62.59;97558.17;2179811;82;21006;-79
2021/05/13 03:05:07;;;;;;;10.17;4.70;;;;;;;10.63;62.84;97555.17;2179616;82;20978;-78
2021/05/13 03:08:10;;;;;;;17.47;6.47;;;;;;;10.65;62.89;97549.94;2178641;82;20997;-77
2021/05/13 03:11:11;;;;;;;51.15;7.62;;;;;;;12.20;66.63;97550.75;2179199;82;21092;-78
2021/05/13 03:14:11;;;;;;;14.07;4.70;;;;;;;13.98;62.91;97540.92;2178527;82;21350;-77
2021/05/13 03:17:13;;;;;;;15.03;4.60;;;;;;;15.37;59.59;97532.22;2179275;82;20966;-78
2021/05/13 03:20:15;;;;;;;17.35;4.20;;;;;;;15.86;55.46;97530.40;2179541;82;21390;-78
2021/05/13 03:23:16;;;;;;;16.73;4.17;;;;;;;16.21;53.98;97528.45;2179328;82;21028;-78
2021/05/13 03:26:25;;;;;;;14.23;4.17;;;;;;;16.47;52.64;97532.88;2179688;82;21062;-78
2021/05/13 03:29:20;;;;;;;10.88;4.53;;;;;;;16.17;50.93;97528.14;2178324;82;21041;-78
2021/05/13 03:32:21;;;;;;;11.50;3.45;;;;;;;15.84;51.58;97526.95;2179471;82;20997;-79
2021/05/13 03:35:22;;;;;;;18.92;4.62;;;;;;;16.11;50.47;97524.38;2179619;82;21394;-80
2021/05/13 03:38:23;;;;;;;8.65;3.52;;;;;;;16.11;49.89;97525.25;2179714;82;21025;-79
2021/05/13 03:41:24;;;;;;;11.57;3.52;;;;;;;15.99;48.82;97522.99;2179816;82;21002;-79
2021/05/13 03:44:25;;;;;;;11.03;3.87;;;;;;;16.15;48.71;97518.97;2176999;81;21066;-78
2021/05/13 03:47:26;;;;;;;10.60;3.65;;;;;;;16.23;47.98;97520.05;2161851;82;20994;-78
2021/05/13 03:50:26;;;;;;;5.97;3.15;;;;;;;16.38;46.99;97519.56;2162106;82;21369;-78
2021/05/13 03:53:28;;;;;;;16.85;3.83;;;;;;;16.58;46.48;97515.45;2161978;82;21081;-80
2021/05/13 03:56:29;;;;;;;8.68;3.25;;;;;;;16.76;45.76;97514.86;2162118;82;21093;-79
2021/05/13 03:59:35;;;;;;;1499.17;157.75;;;;;;;16.86;45.24;97514.95;2162282;82;21082;-80
2021/05/13 04:02:33;;;;;;;24.50;4.62;;;;;;;16.89;45.39;97505.62;2161673;82;21038;-80
2021/05/13 04:05:34;;;;;;;21.90;4.05;;;;;;;16.81;45.16;97511.16;2162156;82;21429;-80
2021/05/13 04:08:35;;;;;;;7.22;3.17;;;;;;;16.72;45.18;97504.02;2162134;82;21410;-80
2021/05/13 04:11:37;;;;;;;22.20;4.00;;;;;;;16.91;45.28;97506.89;2162501;82;21344;-79
2021/05/13 04:14:37;;;;;;;26.15;3.92;;;;;;;17.14;44.72;97505.16;2161663;82;21085;-78
2021/05/13 04:17:39;;;;;;;26.77;4.45;;;;;;;17.40;43.97;97513.95;2161836;82;21335;-79
2021/05/13 04:20:42;;;;;;;9.18;3.02;;;;;;;17.36;43.76;97507.06;2162122;82;20962;-79
2021/05/13 04:23:43;;;;;;;12.85;2.52;;;;;;;17.59;42.87;97495.66;2162306;82;20978;-79
2021/05/13 04:26:44;;;;;;;8.25;2.60;;;;;;;17.84;42.92;97492.52;2162289;82;20975;-79
2021/05/13 04:29:45;;;;;;;5.83;2.80;;;;;;;18.04;42.60;97488.64;2162214;82;20962;-79
2021/05/13 04:32:46;;;;;;;6.78;2.85;;;;;;;18.27;42.39;97486.44;2162262;82;20967;-80
2021/05/13 04:35:48;;;;;;;11.38;2.52;;;;;;;18.46;42.33;97475.98;2162401;82;21078;-79
2021/05/13 04:38:49;;;;;;;4.17;2.62;;;;;;;18.45;41.64;97468.51;2162219;82;20994;-79
2021/05/13 04:41:50;;;;;;;20.05;3.00;;;;;;;18.77;40.87;97464.55;2162397;82;21382;-81
2021/05/13 04:44:53;;;;;;;10.55;3.05;;;;;;;18.66;41.12;97479.14;2163115;82;21134;-83
2021/05/13 04:51:02;;;;;;;15.68;2.95;;;;;;;18.94;41.47;97478.36;2142145;82;21029;-79
2021/05/13 04:54:03;;;;;;;16.82;2.87;;;;;;;19.29;41.03;97468.05;2161602;82;20990;-80
2021/05/13 04:57:04;;;;;;;38.40;5.10;;;;;;;19.61;39.38;97461.32;2161815;82;21010;-78
2021/05/13 05:00:05;;;;;;;9.48;2.77;;;;;;;19.32;39.74;97457.33;2162055;82;21456;-80
2021/05/13 05:03:06;;;;;;;15.93;2.75;;;;;;;18.93;40.48;97459.45;2161665;82;21043;-81
2021/05/13 05:06:10;;;;;;;29.63;3.67;;;;;;;19.10;39.21;97453.45;2162021;82;21038;-78
2021/05/13 05:09:10;;;;;;;6.10;2.90;;;;;;;19.07;38.99;97446.52;2161881;82;20974;-80
2021/05/13 05:12:14;;;;;;;142.85;12.70;;;;;;;19.02;38.98;97447.15;2162167;82;21023;-80
2021/05/13 05:15:17;;;;;;;11.73;2.85;;;;;;;18.39;39.49;97442.81;2161873;82;21062;-82
2021/05/13 05:18:18;;;;;;;7.55;2.42;;;;;;;17.69;40.60;97438.55;2161757;82;21046;-80
2021/05/13 05:21:19;;;;;;;11.25;3.40;;;;;;;17.32;41.52;97442.13;2161509;82;21049;-78
2021/05/13 05:24:20;;;;;;;7.75;2.60;;;;;;;17.02;42.65;97446.28;2160950;82;20963;-79
2021/05/13 05:27:20;;;;;;;10.72;2.55;;;;;;;16.81;43.19;97438.69;2161494;82;20967;-80
2021/05/13 05:30:22;;;;;;;5.58;2.60;;;;;;;16.77;43.63;97441.48;2161154;82;21339;-79
2021/05/13 05:33:23;;;;;;;7.17;2.60;;;;;;;16.73;43.17;97434.14;2161244;82;21006;-81
2021/05/13 05:36:26;;;;;;;16.30;3.15;;;;;;;16.73;43.57;97439.87;2161449;82;21034;-81
2021/05/13 05:39:26;;;;;;;9.85;3.10;;;;;;;16.78;43.90;97436.61;2161373;82;21130;-80
2021/05/13 05:42:28;;;;;;;13.50;2.60;;;;;;;16.77;43.70;97433.13;2161511;82;21096;-81
2021/05/13 05:45:29;;;;;;;5.78;2.87;;;;;;;16.85;43.79;97432.39;2164931;81;21117;-80
2021/05/13 05:48:31;;;;;;;13.53;2.95;;;;;;;17.03;43.64;97436.59;2171378;82;20986;-80
2021/05/13 05:51:32;;;;;;;8.48;2.98;;;;;;;17.25;43.53;97431.40;2171591;82;21010;-80
2021/05/13 05:54:33;;;;;;;5.83;2.55;;;;;;;17.43;43.17;97430.28;2171208;82;20966;-81
2021/05/13 05:57:34;;;;;;;8.35;2.72;;;;;;;17.49;42.93;97426.55;2171327;82;20966;-81
2021/05/13 06:00:35;;;;;;;57.40;8.83;;;;;;;17.53;42.80;97424.20;2171588;82;21005;-80
2021/05/13 06:03:36;;;;;;;24.30;5.17;;;;;;;17.69;42.79;97417.90;2171336;82;21009;-80
2021/05/13 06:06:37;;;;;;;14.65;3.40;;;;;;;18.26;42.66;97421.33;2171703;82;21319;-79
2021/05/13 06:09:38;;;;;;;22.58;4.37;;;;;;;18.44;41.74;97419.23;2171506;82;20970;-80
2021/05/13 06:12:39;;;;;;;17.15;3.60;;;;;;;18.37;41.67;97418.23;2171627;82;21010;-80
2021/05/13 06:15:41;;;;;;;322.63;21.90;;;;;;;18.36;41.69;97422.66;2171326;82;21410;-80
2021/05/13 06:18:42;;;;;;;9.55;2.98;;;;;;;18.45;41.98;97420.09;2171707;82;20957;-79
2021/05/13 06:24:46;;;;;;;10.58;3.85;;;;;;;18.71;41.23;97415.05;2142464;82;21414;-79
2021/05/13 06:27:47;;;;;;;7.65;2.42;;;;;;;18.74;41.12;97410.95;2171481;82;21017;-80
2021/05/13 06:30:48;;;;;;;6.30;3.20;;;;;;;18.83;41.73;97403.94;2171639;82;21393;-79
2021/05/13 06:33:49;;;;;;;17.82;3.40;;;;;;;18.78;40.77;97401.96;2171264;82;21053;-81
2021/05/13 06:36:50;;;;;;;38.67;4.12;;;;;;;18.89;41.01;97398.38;2171861;82;21619;-79
2021/05/13 06:39:51;;;;;;;10.63;2.83;;;;;;;18.96;41.19;97393.68;2171840;82;20970;-79
2021/05/13 06:42:53;;;;;;;8.00;3.50;;;;;;;19.02;41.18;97396.05;2171572;82;21033;-82
2021/05/13 06:45:54;;;;;;;8.28;3.35;;;;;;;18.94;40.49;97393.75;2174522;81;21041;-81
2021/05/13 06:48:56;;;;;;;8.25;3.33;;;;;;;19.12;40.87;97391.23;2178422;82;21394;-79
2021/05/13 06:51:57;;;;;;;9.28;3.45;;;;;;;19.31;40.32;97392.11;2179170;82;21060;-80
2021/05/13 06:54:58;;;;;;;81.45;8.98;;;;;;;19.46;40.34;97391.40;2179065;82;21005;-82
2021/05/13 06:57:59;;;;;;;16.23;3.77;;;;;;;19.64;40.40;97391.89;2179603;82;20957;-81
2021/05/13 07:01:00;;;;;;;6.30;3.00;;;;;;;19.87;39.75;97388.61;2179367;82;21410;-81
2021/05/13 07:04:04;;;;;;;10.53;2.87;;;;;;;20.18;39.56;97386.20;2179136;82;21109;-82
2021/05/13 07:07:12;;;;;;;7.85;3.02;;;;;;;20.32;38.86;97389.02;2179436;82;21426;-79
2021/05/13 07:10:13;;;;;;;10.15;2.83;;;;;;;20.35;39.18;97380.06;2180032;82;21069;-81
2021/05/13 07:13:14;;;;;;;27.40;4.55;;;;;;;20.51;38.26;97384.14;2179924;82;21346;-80
2021/05/13 07:16:15;;;;;;;8.03;3.05;;;;;;;20.44;37.92;97391.55;2180012;82;21030;-80
2021/05/13 07:19:16;;;;;;;9.13;3.10;;;;;;;20.53;37.62;97387.11;2179928;82;20959;-80
2021/05/13 07:22:18;;;;;;;6.08;2.75;;;;;;;20.40;37.07;97383.83;2179531;82;20977;-80
2021/05/13 07:25:20;;;;;;;10.10;2.80;;;;;;;20.32;37.70;97373.13;2179745;82;21002;-81
2021/05/13 07:28:21;;;;;;;9.63;2.83;;;;;;;20.61;38.37;97378.30;2179910;82;20974;-80
2021/05/13 07:31:22;;;;;;;9.48;3.52;;;;;;;20.78;37.23;97370.78;2179789;82;20977;-81
2021/05/13 07:34:23;;;;;;;6.65;2.70;;;;;;;20.96;37.03;97375.62;2179355;82;20942;-79
2021/05/13 07:37:25;;;;;;;11.08;3.08;;;;;;;21.04;36.59;97367.26;2179181;82;20966;-80
2021/05/13 07:40:26;;;;;;;11.78;3.25;;;;;;;21.06;36.78;97373.34;2179546;82;20986;-80
2021/05/13 07:43:27;;;;;;;8.08;2.70;;;;;;;21.06;36.49;97371.54;2179650;82;20970;-79
2021/05/13 07:46:33;;;;;;;12.55;2.70;;;;;;;21.09;35.82;97371.37;2179754;81;21080;-80
2021/05/13 07:49:31;;;;;;;11.40;3.00;;;;;;;21.31;36.28;97361.81;2178546;82;20970;-79
2021/05/13 07:52:32;;;;;;;4.67;3.30;;;;;;;21.60;35.69;97362.39;2179224;82;21425;-81
2021/05/13 07:55:37;;;;;;;3.52;2.65;;;;;;;21.57;34.66;97360.38;2179257;82;21013;-81
2021/05/13 07:58:39;;;;;;;15.53;3.60;;;;;;;21.38;35.48;97364.52;2178971;82;21029;-81
2021/05/13 08:01:40;;;;;;;11.68;2.90;;;;;;;21.36;35.29;97359.77;2178920;82;21349;-81
2021/05/13 08:04:41;;;;;;;5.22;3.00;;;;;;;21.56;35.27;97363.50;2178978;82;21327;-81
2021/05/13 08:07:42;;;;;;;11.65;3.60;;;;;;;21.69;35.46;97355.74;2178454;82;21330;-81
2021/05/13 08:10:43;;;;;;;7.72;3.17;;;;;;;21.79;35.46;97353.42;2178794;82;21058;-79
2021/05/13 08:13:44;;;;;;;6.58;3.27;;;;;;;21.91;34.76;97350.06;2179102;82;20985;-80
2021/05/13 08:16:45;;;;;;;6.10;2.90;;;;;;;22.01;34.87;97343.28;2179760;82;21012;-80
2021/05/13 08:19:46;;;;;;;7.42;3.20;;;;;;;22.23;34.55;97346.43;2179945;82;20990;-80
2021/05/13 08:22:47;;;;;;;7.72;3.10;;;;;;;22.27;33.94;97344.45;2180298;82;21025;-80
2021/05/13 08:25:48;;;;;;;6.37;3.33;;;;;;;22.31;34.13;97345.12;2180350;82;21002;-81
2021/05/13 08:28:49;;;;;;;6.75;2.85;;;;;;;22.47;34.03;97328.64;2180520;82;21059;-80
2021/05/13 08:31:50;;;;;;;5.50;2.70;;;;;;;22.62;33.32;97328.23;2180615;82;20994;-80
2021/05/13 08:34:51;;;;;;;7.55;3.37;;;;;;;22.67;33.59;97320.83;2179826;82;21100;-81
2021/05/13 08:37:52;;;;;;;139.80;12.53;;;;;;;22.94;33.24;97331.14;2180184;82;20965;-79
2021/05/13 08:40:53;;;;;;;7.95;3.25;;;;;;;23.07;33.44;97324.58;2179872;81;21030;-81
2021/05/13 08:43:54;;;;;;;16.65;4.15;;;;;;;23.12;32.82;97325.15;2179285;82;21029;-81
2021/05/13 08:46:55;;;;;;;8.68;3.62;;;;;;;23.18;32.91;97326.09;2169897;81;21117;-80
2021/05/13 08:49:56;;;;;;;8.13;3.50;;;;;;;23.18;32.64;97326.95;2161620;82;20987;-80
2021/05/13 08:52:57;;;;;;;10.72;3.40;;;;;;;23.19;33.11;97323.34;2161828;82;21027;-80
2021/05/13 08:55:58;;;;;;;15.93;4.12;;;;;;;23.43;32.60;97315.63;2161889;82;20981;-79
2021/05/13 08:59:05;;;;;;;20.30;4.05;;;;;;;23.51;32.04;97319.98;2162122;82;21102;-79
2021/05/13 09:02:07;;;;;;;6.05;2.92;;;;;;;23.36;32.92;97312.95;2162478;82;21022;-81
2021/05/13 09:05:08;;;;;;;10.28;3.50;;;;;;;23.56;32.71;97316.20;2162093;82;20974;-79
2021/05/13 09:08:09;;;;;;;6.08;3.40;;;;;;;23.85;32.14;97316.97;2161852;82;20966;-80
2021/05/13 09:11:10;;;;;;;6.15;3.42;;;;;;;24.02;30.67;97307.39;2162190;82;20994;-81
2021/05/13 09:14:11;;;;;;;8.40;3.17;;;;;;;23.81;31.51;97305.19;2162272;82;21026;-80
2021/05/13 09:17:12;;;;;;;15.58;4.12;;;;;;;23.75;30.84;97300.73;2162066;82;21125;-81
2021/05/13 09:20:13;;;;;;;6.12;3.60;;;;;;;23.67;31.72;97309.70;2162192;82;20970;-81
2021/05/13 09:23:14;;;;;;;5.90;3.25;;;;;;;23.90;31.40;97307.72;2161801;82;20991;-79
2021/05/13 09:26:16;;;;;;;714.40;72.82;;;;;;;24.23;30.64;97297.09;2162697;82;20969;-79
2021/05/13 09:29:19;;;;;;;8.50;3.50;;;;;;;24.50;30.84;97293.95;2163206;82;21073;-79
2021/05/13 09:32:19;;;;;;;7.80;3.50;;;;;;;24.78;30.38;97297.74;2162602;82;21462;-80
2021/05/13 09:35:21;;;;;;;7.65;3.65;;;;;;;24.99;30.33;97299.90;2161950;82;21438;-80
2021/05/13 09:38:22;;;;;;;5.70;3.60;;;;;;;25.19;30.13;97297.17;2162449;82;20974;-81
2021/05/13 09:41:23;;;;;;;5.35;3.40;;;;;;;25.05;30.03;97301.66;2162450;82;20974;-80
2021/05/13 09:44:24;;;;;;;7.72;3.35;;;;;;;24.81;30.08;97302.49;2162255;82;21009;-81
2021/05/13 09:47:28;;;;;;;10.65;4.28;;;;;;;24.64;30.32;97303.66;2168087;81;21125;-79
2021/05/13 09:50:29;;;;;;;12.07;3.77;;;;;;;24.29;30.32;97288.27;2172000;82;21097;-80
2021/05/13 09:53:30;;;;;;;8.65;3.42;;;;;;;24.40;30.82;97278.20;2172559;82;20958;-80
2021/05/13 09:56:31;;;;;;;6.03;3.85;;;;;;;24.55;30.35;97275.81;2172592;82;20962;-79
2021/05/13 09:59:34;;;;;;;8.70;3.77;;;;;;;24.88;30.27;97276.59;2172497;82;21033;-81
2021/05/13 10:02:35;;;;;;;6.40;4.55;;;;;;;25.11;29.52;97262.13;2171876;82;21030;-82
2021/05/13 10:05:36;;;;;;;41.20;6.22;;;;;;;25.34;30.04;97278.23;2172061;82;20982;-80
2021/05/13 10:08:38;;;;;;;17.07;4.62;;;;;;;25.02;30.63;97275.66;2172183;82;21331;-80
2021/05/13 10:11:39;;;;;;;11.95;4.83;;;;;;;25.06;33.37;97273.14;2171322;82;21379;-79
2021/05/13 10:14:40;;;;;;;7.97;3.87;;;;;;;25.18;32.49;97270.95;2171556;82;20930;-79
2021/05/13 10:17:41;;;;;;;7.35;3.67;;;;;;;25.31;29.69;97258.42;2171520;82;21034;-80
2021/05/13 10:20:42;;;;;;;9.55;4.62;;;;;;;24.84;30.49;97249.76;2171424;82;21422;-80
2021/05/13 10:23:43;;;;;;;16.35;4.55;;;;;;;24.32;31.91;97253.39;2171261;82;21374;-80
2021/05/13 10:26:44;;;;;;;7.78;3.40;;;;;;;24.13;31.83;97257.73;2171580;82;20958;-81
2021/05/13 10:29:45;;;;;;;10.78;3.95;;;;;;;23.85;32.39;97256.55;2171689;82;21411;-81
2021/05/13 10:32:46;;;;;;;16.90;4.10;;;;;;;24.24;32.17;97252.14;2171914;82;20954;-81
2021/05/13 10:35:47;;;;;;;51.58;12.15;;;;;;;24.43;31.18;97245.98;2171564;82;20990;-79
2021/05/13 10:38:47;;;;;;;12.10;4.67;;;;;;;23.99;32.00;97243.15;2171856;82;20985;-80
2021/05/13 10:41:49;;;;;;;11.90;3.70;;;;;;;24.21;32.37;97253.69;2171640;82;21026;-80
2021/05/13 10:44:49;;;;;;;9.38;3.30;;;;;;;24.52;32.09;97241.34;2171740;82;20974;-79
2021/05/13 10:47:50;;;;;;;7.53;3.90;;;;;;;24.41;32.13;97241.23;2164510;81;21118;-80
2021/05/13 10:50:51;;;;;;;10.63;4.80;;;;;;;24.05;32.35;97236.55;2161416;82;20978;-78
2021/05/13 10:53:54;;;;;;;62.23;38.35;;;;;;;23.68;32.40;97230.17;2161781;82;21026;-79
2021/05/13 10:56:55;;;;;;;85.22;18.40;;;;;;;23.31;32.82;97223.20;2161922;82;21070;-79
2021/05/13 10:59:56;;;;;;;64.40;31.00;;;;;;;23.10;33.50;97224.11;2161705;82;21002;-79
2021/05/13 11:02:57;;;;;;;5.53;4.35;;;;;;;23.33;33.48;97219.11;2161431;82;20997;-78
2021/05/13 11:05:58;;;;;;;4.90;3.62;;;;;;;23.81;32.65;97215.08;2161664;82;21415;-80
2021/05/13 11:08:59;;;;;;;5.22;4.03;;;;;;;24.19;32.07;97212.47;2161470;82;20957;-79
2021/05/13 11:12:00;;;;;;;13.72;8.60;;;;;;;24.54;31.31;97207.42;2161300;82;21315;-80
2021/05/13 11:18:11;;;;;;;22.52;5.08;;;;;;;25.37;30.96;97203.71;2140909;82;21013;-80
2021/05/13 11:21:12;;;;;;;6.43;3.80;;;;;;;25.69;29.83;97208.03;2161745;82;20954;-79
2021/05/13 11:24:13;;;;;;;7.92;3.42;;;;;;;25.92;29.33;97193.78;2161488;82;21098;-80
2021/05/13 11:27:14;;;;;;;11.73;4.83;;;;;;;26.31;28.82;97192.56;2161695;82;21462;-79
2021/05/13 11:30:15;;;;;;;8.65;4.33;;;;;;;26.70;28.13;97188.25;2161722;82;20967;-78
2021/05/13 11:33:16;;;;;;;7.87;5.17;;;;;;;26.65;27.63;97190.80;2161366;82;21062;-78
2021/05/13 11:36:17;;;;;;;12.05;3.90;;;;;;;26.49;27.88;97188.97;2161772;82;21081;-80
2021/05/13 11:39:18;;;;;;;8.85;3.75;;;;;;;26.15;28.17;97183.17;2161458;82;21047;-79
2021/05/13 11:42:19;;;;;;;10.80;3.75;;;;;;;25.43;28.66;97186.38;2161359;82;20970;-80
2021/05/13 11:45:20;;;;;;;10.58;4.22;;;;;;;25.00;29.50;97173.00;2161382;82;21062;-81
2021/05/13 11:48:21;;;;;;;9.35;3.60;;;;;;;24.87;30.04;97178.82;2174979;82;21442;-81
2021/05/13 11:51:22;;;;;;;7.80;3.30;;;;;;;24.95;29.99;97182.27;2179072;82;21033;-81
2021/05/13 11:54:23;;;;;;;10.93;4.90;;;;;;;25.15;29.49;97172.87;2178960;82;21112;-80
2021/05/13 11:57:25;;;;;;;9.23;3.83;;;;;;;25.37;29.68;97168.51;2179061;82;21037;-81
2021/05/13 12:00:26;;;;;;;8.53;4.05;;;;;;;25.31;29.96;97175.64;2178883;82;21056;-80
2021/05/13 12:03:27;;;;;;;9.08;4.60;;;;;;;25.00;29.67;97181.00;2178757;82;21052;-79
2021/05/13 12:06:27;;;;;;;8.78;4.15;;;;;;;25.05;29.65;97176.67;2179244;82;20965;-79
2021/05/13 12:09:33;;;;;;;11.38;3.98;;;;;;;25.34;28.86;97168.73;2178498;82;20997;-78
2021/05/13 12:12:34;;;;;;;6.17;3.62;;;;;;;25.26;28.35;97167.12;2178636;82;21009;-78
2021/05/13 12:15:35;;;;;;;4.33;3.45;;;;;;;24.78;29.19;97166.99;2178495;82;20991;-80
2021/05/13 12:18:36;;;;;;;8.70;3.77;;;;;;;24.83;29.66;97161.33;2178984;82;21053;-79
2021/05/13 12:21:37;;;;;;;66.57;9.23;;;;;;;25.36;28.77;97157.45;2179151;82;21033;-80
2021/05/13 12:24:40;;;;;;;12.00;6.28;;;;;;;25.19;29.72;97156.52;2179045;82;21021;-80
2021/05/13 12:27:40;;;;;;;7.67;3.80;;;;;;;25.07;29.25;97163.58;2179805;82;20978;-79
2021/05/13 12:30:41;;;;;;;18.65;11.28;;;;;;;24.93;29.36;97162.84;2179183;82;21234;-79
2021/05/13 12:33:43;;;;;;;48.28;25.82;;;;;;;24.65;29.85;97165.31;2178623;81;20965;-79
2021/05/13 12:36:43;;;;;;;8.70;5.83;;;;;;;24.52;30.17;97168.00;2178908;81;20949;-80
2021/05/13 12:39:45;;;;;;;5.22;3.83;;;;;;;24.77;29.96;97162.62;2179069;82;20965;-77
2021/05/13 12:42:46;;;;;;;11.50;7.12;;;;;;;25.05;29.37;97163.31;2178859;82;21013;-80
2021/05/13 12:45:48;;;;;;;7.62;4.40;;;;;;;24.95;29.80;97164.92;2179521;82;20981;-79
2021/05/13 12:48:49;;;;;;;8.85;3.98;;;;;;;24.87;29.64;97167.30;2165608;81;21477;-78
2021/05/13 12:51:50;;;;;;;9.98;3.70;;;;;;;24.78;29.60;97160.32;2161830;82;20963;-79
2021/05/13 12:54:51;;;;;;;10.95;3.55;;;;;;;24.96;29.36;97156.80;2161575;82;20959;-79
2021/05/13 12:57:52;;;;;;;6.03;3.95;;;;;;;25.61;28.38;97155.62;2161322;82;21022;-79
2021/05/13 13:00:53;;;;;;;11.33;5.62;;;;;;;25.98;28.08;97156.38;2161270;82;21053;-82
2021/05/13 13:03:56;;;;;;;5.90;4.37;;;;;;;25.88;27.95;97150.03;2160831;82;21408;-80
2021/05/13 13:06:59;;;;;;;4.97;4.10;;;;;;;26.01;28.06;97142.80;2161552;82;21468;-80
2021/05/13 13:09:59;;;;;;;8.45;4.10;;;;;;;26.59;27.85;97141.78;2161541;81;21074;-80
2021/05/13 13:13:00;;;;;;;4.87;3.52;;;;;;;26.80;27.73;97136.53;2161619;82;21018;-77
2021/05/13 13:16:04;;;;;;;8.48;3.70;;;;;;;26.99;27.27;97140.46;2161843;82;20981;-79
2021/05/13 13:19:04;;;;;;;5.00;3.67;;;;;;;27.04;27.45;97137.77;2161355;82;21090;-78
2021/05/13 13:22:06;;;;;;;6.00;3.83;;;;;;;26.94;27.43;97146.16;2161418;82;21085;-79
2021/05/13 13:25:07;;;;;;;6.78;3.42;;;;;;;26.47;27.75;97144.09;2161372;82;20986;-79
2021/05/13 13:28:08;;;;;;;228.42;24.92;;;;;;;26.18;27.77;97140.16;2161578;82;20954;-81
2021/05/13 13:31:15;;;;;;;6.50;4.15;;;;;;;25.98;27.97;97145.67;2162134;82;20962;-79
2021/05/13 13:34:15;;;;;;;6.05;3.55;;;;;;;25.67;27.86;97143.16;2161017;82;21455;-79
2021/05/13 13:37:15;;;;;;;12.95;7.95;;;;;;;25.42;28.03;97136.59;2161339;82;21328;-79
2021/05/13 13:40:17;;;;;;;5.15;3.80;;;;;;;25.37;28.64;97143.14;2161192;82;21038;-78
2021/05/13 13:43:18;;;;;;;9.73;4.75;;;;;;;25.88;28.55;97137.52;2161234;82;20978;-80
2021/05/13 13:46:19;;;;;;;5.83;4.00;;;;;;;26.38;27.92;97129.26;2161550;82;21058;-80
2021/05/13 13:49:20;;;;;;;12.80;4.03;;;;;;;26.72;28.19;97128.76;2177275;81;21033;-79
2021/05/13 13:52:21;;;;;;;9.00;3.87;;;;;;;26.89;27.91;97129.62;2178676;82;20950;-78
2021/05/13 13:55:22;;;;;;;8.18;3.90;;;;;;;27.03;27.41;97125.85;2179068;82;21369;-79
2021/05/13 13:58:24;;;;;;;4.37;3.50;;;;;;;27.01;27.37;97121.95;2178966;82;20989;-79
2021/05/13 14:01:24;;;;;;;19.00;5.08;;;;;;;27.09;27.38;97125.34;2179407;82;21041;-82
2021/05/13 14:04:26;;;;;;;5.17;4.28;;;;;;;27.13;26.89;97123.62;2179037;82;21039;-79
2021/05/13 14:07:27;;;;;;;11.15;3.90;;;;;;;27.21;27.09;97127.02;2179058;82;21068;-79
2021/05/13 14:10:29;;;;;;;6.80;4.28;;;;;;;27.41;26.63;97111.48;2179642;82;20941;-79
2021/05/13 14:13:30;;;;;;;11.25;4.28;;;;;;;27.53;26.94;97119.83;2179761;82;20965;-79
2021/05/13 14:16:31;;;;;;;11.65;3.98;;;;;;;27.59;26.96;97120.66;2179649;82;21361;-79